sensor_id;sensor_type;location;lat;lon;timestamp;pressure;altitude;pressure_sealevel;temperature;humidity
40073;BME280;25774;52.256;9.356;2022-07-22T00:02:05;100812.03;;;19.03;100.00
40073;BME280;25774;52.256;9.356;2022-07-22T00:04:30;100812.44;;;19.20;100.00
40073;BME280;25774;52.256;9.356;2022-07-22T00:06:56;100806.81;;;19.23;100.00
40073;BME280;25774;52.256;9.356;2022-07-22T00:09:21;100803.16;;;19.24;100.00
40073;BME280;25774;52.256;9.356;2022-07-22T00:11:47;100800.78;;;19.21;100.00
40073;BME280;25774;52.256;9.356;2022-07-22T00:14:12;100806.13;;;19.21;100.00
40073;BME280;25774;52.256;9.356;2022-07-22T00:16:38;100795.53;;;19.40;100.00
40073;BME280;25774;52.256;9.356;2022-07-22T00:19:03;100790.19;;;19.40;100.00
40073;BME280;25774;52.256;9.356;2022-07-22T00:21:29;100791.66;;;19.54;100.00
40073;BME280;25774;52.256;9.356;2022-07-22T00:23:54;100795.91;;;19.57;100.00
40073;BME280;25774;52.256;9.356;2022-07-22T00:26:20;100782.63;;;19.55;100.00
40073;BME280;25774;52.256;9.356;2022-07-22T00:28:45;100788.78;;;19.67;100.00
40073;BME280;25774;52.256;9.356;2022-07-22T00:31:11;100787.09;;;19.66;100.00
40073;BME280;25774;52.256;9.356;2022-07-22T00:33:36;100778.81;;;19.69;100.00
40073;BME280;25774;52.256;9.356;2022-07-22T00:36:01;100773.72;;;19.66;100.00
40073;BME280;25774;52.256;9.356;2022-07-22T00:38:27;100783.44;;;19.67;100.00
40073;BME280;25774;52.256;9.356;2022-07-22T00:40:52;100790.13;;;19.82;100.00
40073;BME280;25774;52.256;9.356;2022-07-22T00:43:17;100771.66;;;19.58;100.00
40073;BME280;25774;52.256;9.356;2022-07-22T00:45:43;100781.06;;;19.52;100.00
40073;BME280;25774;52.256;9.356;2022-07-22T00:48:08;100795.75;;;19.58;100.00
40073;BME280;25774;52.256;9.356;2022-07-22T00:50:34;100807.38;;;19.68;100.00
40073;BME280;25774;52.256;9.356;2022-07-22T00:53:00;100814.50;;;19.58;100.00
40073;BME280;25774;52.256;9.356;2022-07-22T00:55:25;100828.28;;;19.54;100.00
40073;BME280;25774;52.256;9.356;2022-07-22T00:57:51;100842.25;;;19.36;100.00
40073;BME280;25774;52.256;9.356;2022-07-22T01:00:19;100854.09;;;19.34;100.00
40073;BME280;25774;52.256;9.356;2022-07-22T01:02:46;100876.41;;;19.44;100.00
40073;BME280;25774;52.256;9.356;2022-07-22T01:05:12;100881.28;;;19.39;100.00
40073;BME280;25774;52.256;9.356;2022-07-22T01:07:38;100903.28;;;19.42;100.00
40073;BME280;25774;52.256;9.356;2022-07-22T01:10:05;100907.22;;;19.38;100.00
40073;BME280;25774;52.256;9.356;2022-07-22T01:12:31;100916.59;;;19.33;100.00
40073;BME280;25774;52.256;9.356;2022-07-22T01:14:57;100924.03;;;19.29;100.00
40073;BME280;25774;52.256;9.356;2022-07-22T01:17:22;100936.75;;;19.16;100.00
40073;BME280;25774;52.256;9.356;2022-07-22T01:19:48;100961.19;;;19.11;100.00
40073;BME280;25774;52.256;9.356;2022-07-22T01:22:14;100980.56;;;19.03;100.00
40073;BME280;25774;52.256;9.356;2022-07-22T01:24:41;100984.94;;;19.04;100.00
40073;BME280;25774;52.256;9.356;2022-07-22T01:27:07;101011.22;;;18.99;100.00
40073;BME280;25774;52.256;9.356;2022-07-22T01:29:32;101036.13;;;18.89;100.00
40073;BME280;25774;52.256;9.356;2022-07-22T01:31:57;101049.59;;;18.42;100.00
40073;BME280;25774;52.256;9.356;2022-07-22T01:34:23;101066.25;;;18.46;100.00
40073;BME280;25774;52.256;9.356;2022-07-22T01:36:49;101078.25;;;18.29;100.00
40073;BME280;25774;52.256;9.356;2022-07-22T01:39:14;101089.31;;;18.35;100.00
40073;BME280;25774;52.256;9.356;2022-07-22T01:41:40;101093.63;;;18.14;100.00
40073;BME280;25774;52.256;9.356;2022-07-22T01:44:06;101115.44;;;18.32;100.00
40073;BME280;25774;52.256;9.356;2022-07-22T01:46:31;101099.66;;;18.05;100.00
40073;BME280;25774;52.256;9.356;2022-07-22T01:48:57;101116.28;;;17.97;100.00
40073;BME280;25774;52.256;9.356;2022-07-22T01:51:22;101121.16;;;18.03;100.00
40073;BME280;25774;52.256;9.356;2022-07-22T01:53:48;101142.19;;;17.84;100.00
40073;BME280;25774;52.256;9.356;2022-07-22T01:56:14;101168.38;;;18.03;100.00
40073;BME280;25774;52.256;9.356;2022-07-22T01:58:40;101177.00;;;17.82;100.00
40073;BME280;25774;52.256;9.356;2022-07-22T02:01:06;101194.50;;;17.74;100.00
40073;BME280;25774;52.256;9.356;2022-07-22T02:03:31;101218.50;;;17.50;100.00
40073;BME280;25774;52.256;9.356;2022-07-22T02:05:58;101228.34;;;17.36;100.00
40073;BME280;25774;52.256;9.356;2022-07-22T02:08:24;101256.06;;;17.47;100.00
40073;BME280;25774;52.256;9.356;2022-07-22T02:10:49;101265.78;;;17.35;100.00
40073;BME280;25774;52.256;9.356;2022-07-22T02:13:15;101276.44;;;17.48;100.00
40073;BME280;25774;52.256;9.356;2022-07-22T02:15:40;101266.13;;;17.17;100.00
40073;BME280;25774;52.256;9.356;2022-07-22T02:18:14;101275.59;;;17.09;100.00
40073;BME280;25774;52.256;9.356;2022-07-22T02:20:40;101308.91;;;17.41;100.00
40073;BME280;25774;52.256;9.356;2022-07-22T02:23:06;101313.81;;;17.35;100.00
40073;BME280;25774;52.256;9.356;2022-07-22T02:25:33;101323.34;;;17.52;100.00
40073;BME280;25774;52.256;9.356;2022-07-22T02:27:59;101320.22;;;17.58;100.00
40073;BME280;25774;52.256;9.356;2022-07-22T02:30:25;101311.91;;;17.37;100.00
40073;BME280;25774;52.256;9.356;2022-07-22T02:32:52;101315.63;;;17.47;100.00
40073;BME280;25774;52.256;9.356;2022-07-22T02:35:17;101309.22;;;17.24;100.00
40073;BME280;25774;52.256;9.356;2022-07-22T02:37:42;101295.31;;;17.06;100.00
40073;BME280;25774;52.256;9.356;2022-07-22T02:40:08;101303.44;;;17.05;100.00
40073;BME280;25774;52.256;9.356;2022-07-22T02:42:34;101304.13;;;16.81;100.00
40073;BME280;25774;52.256;9.356;2022-07-22T02:44:59;101335.31;;;16.93;100.00
40073;BME280;25774;52.256;9.356;2022-07-22T02:47:25;101354.72;;;16.95;100.00
40073;BME280;25774;52.256;9.356;2022-07-22T02:49:51;101363.06;;;17.04;100.00
40073;BME280;25774;52.256;9.356;2022-07-22T02:52:16;101347.66;;;16.82;100.00
40073;BME280;25774;52.256;9.356;2022-07-22T02:54:42;101350.53;;;16.79;100.00
40073;BME280;25774;52.256;9.356;2022-07-22T02:57:07;101370.59;;;16.97;100.00
40073;BME280;25774;52.256;9.356;2022-07-22T02:59:33;101351.28;;;16.93;100.00
40073;BME280;25774;52.256;9.356;2022-07-22T03:01:58;101346.72;;;16.95;100.00
40073;BME280;25774;52.256;9.356;2022-07-22T03:04:24;101332.75;;;16.92;100.00
40073;BME280;25774;52.256;9.356;2022-07-22T03:06:49;101324.31;;;16.71;100.00
40073;BME280;25774;52.256;9.356;2022-07-22T03:09:14;101310.66;;;16.63;100.00
40073;BME280;25774;52.256;9.356;2022-07-22T03:11:40;101308.94;;;16.62;100.00
40073;BME280;25774;52.256;9.356;2022-07-22T03:14:05;101305.03;;;16.67;100.00
40073;BME280;25774;52.256;9.356;2022-07-22T03:16:31;101317.19;;;16.99;100.00
40073;BME280;25774;52.256;9.356;2022-07-22T03:18:57;101287.75;;;17.00;100.00
40073;BME280;25774;52.256;9.356;2022-07-22T03:21:22;101266.94;;;16.92;100.00
40073;BME280;25774;52.256;9.356;2022-07-22T03:23:47;101260.56;;;16.95;100.00
40073;BME280;25774;52.256;9.356;2022-07-22T03:26:18;101252.44;;;17.09;100.00
40073;BME280;25774;52.256;9.356;2022-07-22T03:28:44;101254.25;;;17.22;100.00
40073;BME280;25774;52.256;9.356;2022-07-22T03:31:09;101223.63;;;16.89;100.00
40073;BME280;25774;52.256;9.356;2022-07-22T03:33:34;101219.91;;;16.91;100.00
40073;BME280;25774;52.256;9.356;2022-07-22T03:36:01;101219.38;;;17.25;100.00
40073;BME280;25774;52.256;9.356;2022-07-22T03:38:26;101207.63;;;17.40;100.00
40073;BME280;25774;52.256;9.356;2022-07-22T03:40:52;101172.31;;;17.24;100.00
40073;BME280;25774;52.256;9.356;2022-07-22T03:43:17;101160.81;;;17.10;100.00
40073;BME280;25774;52.256;9.356;2022-07-22T03:45:44;101147.16;;;16.89;100.00
40073;BME280;25774;52.256;9.356;2022-07-22T03:48:10;101145.47;;;16.76;100.00
40073;BME280;25774;52.256;9.356;2022-07-22T03:50:35;101155.72;;;16.82;100.00
40073;BME280;25774;52.256;9.356;2022-07-22T03:53:01;101150.88;;;16.74;100.00
40073;BME280;25774;52.256;9.356;2022-07-22T03:55:26;101150.03;;;16.73;100.00
40073;BME280;25774;52.256;9.356;2022-07-22T03:57:51;101157.94;;;16.88;100.00
40073;BME280;25774;52.256;9.356;2022-07-22T04:00:17;101146.38;;;16.74;100.00
40073;BME280;25774;52.256;9.356;2022-07-22T04:02:42;101164.88;;;16.90;100.00
40073;BME280;25774;52.256;9.356;2022-07-22T04:05:08;101145.47;;;16.88;100.00
40073;BME280;25774;52.256;9.356;2022-07-22T04:07:33;101147.03;;;17.04;100.00
40073;BME280;25774;52.256;9.356;2022-07-22T04:09:59;101143.44;;;16.92;100.00
40073;BME280;25774;52.256;9.356;2022-07-22T04:12:35;101153.34;;;17.03;100.00
40073;BME280;25774;52.256;9.356;2022-07-22T04:15:01;101144.81;;;16.72;100.00
40073;BME280;25774;52.256;9.356;2022-07-22T04:17:26;101136.34;;;16.65;100.00
40073;BME280;25774;52.256;9.356;2022-07-22T04:19:52;101125.59;;;16.67;100.00
40073;BME280;25774;52.256;9.356;2022-07-22T04:22:18;101120.06;;;16.57;100.00
40073;BME280;25774;52.256;9.356;2022-07-22T04:24:43;101127.72;;;16.62;100.00
40073;BME280;25774;52.256;9.356;2022-07-22T04:27:08;101109.81;;;16.64;100.00
40073;BME280;25774;52.256;9.356;2022-07-22T04:29:33;101121.16;;;16.93;100.00
40073;BME280;25774;52.256;9.356;2022-07-22T04:31:59;101108.56;;;16.82;100.00
40073;BME280;25774;52.256;9.356;2022-07-22T04:34:25;101114.00;;;16.93;100.00
40073;BME280;25774;52.256;9.356;2022-07-22T04:36:50;101114.31;;;17.02;100.00
40073;BME280;25774;52.256;9.356;2022-07-22T04:39:15;101098.13;;;16.79;100.00
40073;BME280;25774;52.256;9.356;2022-07-22T04:41:41;101102.16;;;16.72;100.00
40073;BME280;25774;52.256;9.356;2022-07-22T04:44:06;101101.94;;;16.75;100.00
40073;BME280;25774;52.256;9.356;2022-07-22T04:46:31;101105.88;;;16.69;100.00
40073;BME280;25774;52.256;9.356;2022-07-22T04:48:57;101101.19;;;16.35;100.00
40073;BME280;25774;52.256;9.356;2022-07-22T04:51:22;101133.91;;;16.62;100.00
40073;BME280;25774;52.256;9.356;2022-07-22T04:53:49;101140.41;;;16.58;100.00
40073;BME280;25774;52.256;9.356;2022-07-22T04:56:14;101148.75;;;16.66;100.00
40073;BME280;25774;52.256;9.356;2022-07-22T04:58:40;101154.28;;;16.63;100.00
40073;BME280;25774;52.256;9.356;2022-07-22T05:01:05;101165.03;;;16.62;100.00
40073;BME280;25774;52.256;9.356;2022-07-22T05:03:31;101175.19;;;16.69;100.00
40073;BME280;25774;52.256;9.356;2022-07-22T05:05:56;101185.25;;;16.91;100.00
40073;BME280;25774;52.256;9.356;2022-07-22T05:08:22;101187.91;;;17.04;100.00
40073;BME280;25774;52.256;9.356;2022-07-22T05:10:48;101182.47;;;17.18;100.00
40073;BME280;25774;52.256;9.356;2022-07-22T05:13:13;101154.81;;;17.07;100.00
40073;BME280;25774;52.256;9.356;2022-07-22T05:15:39;101155.56;;;16.70;100.00
40073;BME280;25774;52.256;9.356;2022-07-22T05:18:04;101177.47;;;16.76;100.00
40073;BME280;25774;52.256;9.356;2022-07-22T05:20:30;101186.41;;;17.00;100.00
40073;BME280;25774;52.256;9.356;2022-07-22T05:22:55;101170.94;;;16.92;100.00
40073;BME280;25774;52.256;9.356;2022-07-22T05:25:20;101174.59;;;17.04;100.00
40073;BME280;25774;52.256;9.356;2022-07-22T05:27:50;101158.75;;;16.63;100.00
40073;BME280;25774;52.256;9.356;2022-07-22T05:30:16;101190.03;;;16.86;100.00
40073;BME280;25774;52.256;9.356;2022-07-22T05:32:41;101190.25;;;16.83;100.00
40073;BME280;25774;52.256;9.356;2022-07-22T05:35:07;101204.84;;;17.16;100.00
40073;BME280;25774;52.256;9.356;2022-07-22T05:37:32;101185.97;;;16.81;100.00
40073;BME280;25774;52.256;9.356;2022-07-22T05:39:57;101182.16;;;17.10;100.00
40073;BME280;25774;52.256;9.356;2022-07-22T05:42:23;101176.06;;;17.08;100.00
40073;BME280;25774;52.256;9.356;2022-07-22T05:44:48;101158.69;;;17.03;100.00
40073;BME280;25774;52.256;9.356;2022-07-22T05:47:13;101131.19;;;16.77;100.00
40073;BME280;25774;52.256;9.356;2022-07-22T05:49:39;101142.81;;;16.88;100.00
40073;BME280;25774;52.256;9.356;2022-07-22T05:52:04;101145.13;;;16.93;100.00
40073;BME280;25774;52.256;9.356;2022-07-22T05:54:30;101139.06;;;16.91;100.00
40073;BME280;25774;52.256;9.356;2022-07-22T05:56:56;101135.75;;;17.00;100.00
40073;BME280;25774;52.256;9.356;2022-07-22T05:59:21;101133.91;;;16.62;100.00
40073;BME280;25774;52.256;9.356;2022-07-22T06:01:46;101157.84;;;16.77;100.00
40073;BME280;25774;52.256;9.356;2022-07-22T06:04:12;101174.63;;;16.51;100.00
40073;BME280;25774;52.256;9.356;2022-07-22T06:06:37;101180.50;;;16.57;100.00
40073;BME280;25774;52.256;9.356;2022-07-22T06:09:02;101181.75;;;16.51;100.00
40073;BME280;25774;52.256;9.356;2022-07-22T06:11:28;101187.88;;;16.66;100.00
40073;BME280;25774;52.256;9.356;2022-07-22T06:13:53;101180.72;;;16.26;100.00
40073;BME280;25774;52.256;9.356;2022-07-22T06:16:19;101194.47;;;16.60;100.00
40073;BME280;25774;52.256;9.356;2022-07-22T06:18:45;101192.78;;;16.59;100.00
40073;BME280;25774;52.256;9.356;2022-07-22T06:21:10;101177.84;;;16.17;100.00
40073;BME280;25774;52.256;9.356;2022-07-22T06:23:36;101192.41;;;16.11;100.00
40073;BME280;25774;52.256;9.356;2022-07-22T06:26:02;101219.75;;;16.27;100.00
40073;BME280;25774;52.256;9.356;2022-07-22T06:28:29;101234.72;;;16.16;100.00
40073;BME280;25774;52.256;9.356;2022-07-22T06:30:54;101240.38;;;16.24;100.00
40073;BME280;25774;52.256;9.356;2022-07-22T06:33:20;101259.53;;;16.16;100.00
40073;BME280;25774;52.256;9.356;2022-07-22T06:35:45;101266.09;;;16.25;100.00
40073;BME280;25774;52.256;9.356;2022-07-22T06:38:10;101303.47;;;16.78;100.00
40073;BME280;25774;52.256;9.356;2022-07-22T06:40:36;101293.91;;;16.88;100.00
40073;BME280;25774;52.256;9.356;2022-07-22T06:43:03;101293.00;;;16.74;100.00
40073;BME280;25774;52.256;9.356;2022-07-22T06:45:28;101267.41;;;16.72;100.00
40073;BME280;25774;52.256;9.356;2022-07-22T06:47:54;101267.69;;;16.82;100.00
40073;BME280;25774;52.256;9.356;2022-07-22T06:50:19;101262.59;;;17.04;100.00
40073;BME280;25774;52.256;9.356;2022-07-22T06:52:46;101256.94;;;17.09;100.00
40073;BME280;25774;52.256;9.356;2022-07-22T06:55:14;101239.75;;;17.26;100.00
40073;BME280;25774;52.256;9.356;2022-07-22T07:00:10;101184.06;;;17.21;100.00
40073;BME280;25774;52.256;9.356;2022-07-22T07:02:35;101165.28;;;17.10;100.00
40073;BME280;25774;52.256;9.356;2022-07-22T07:05:01;101167.81;;;17.37;100.00
40073;BME280;25774;52.256;9.356;2022-07-22T07:07:26;101136.34;;;17.16;100.00
40073;BME280;25774;52.256;9.356;2022-07-22T07:09:53;101126.09;;;17.36;100.00
40073;BME280;25774;52.256;9.356;2022-07-22T07:12:18;101109.31;;;17.47;100.00
40073;BME280;25774;52.256;9.356;2022-07-22T07:14:43;101103.34;;;17.67;100.00
40073;BME280;25774;52.256;9.356;2022-07-22T07:17:09;101074.56;;;17.23;100.00
40073;BME280;25774;52.256;9.356;2022-07-22T07:19:34;101088.88;;;17.58;100.00
40073;BME280;25774;52.256;9.356;2022-07-22T07:22:00;101060.78;;;17.29;100.00
40073;BME280;25774;52.256;9.356;2022-07-22T07:24:25;101060.34;;;16.98;100.00
40073;BME280;25774;52.256;9.356;2022-07-22T07:26:50;101071.88;;;16.73;100.00
40073;BME280;25774;52.256;9.356;2022-07-22T07:29:16;101081.25;;;16.40;100.00
40073;BME280;25774;52.256;9.356;2022-07-22T07:31:41;101081.56;;;16.48;100.00
40073;BME280;25774;52.256;9.356;2022-07-22T07:34:07;101078.03;;;16.10;100.00
40073;BME280;25774;52.256;9.356;2022-07-22T07:36:32;101096.09;;;16.04;100.00
40073;BME280;25774;52.256;9.356;2022-07-22T07:38:57;101111.56;;;15.99;100.00
40073;BME280;25774;52.256;9.356;2022-07-22T07:41:23;101115.41;;;15.54;100.00
40073;BME280;25774;52.256;9.356;2022-07-22T07:43:48;101130.53;;;15.80;100.00
40073;BME280;25774;52.256;9.356;2022-07-22T07:46:15;101172.34;;;15.93;100.00
40073;BME280;25774;52.256;9.356;2022-07-22T07:48:40;101162.47;;;15.80;100.00
40073;BME280;25774;52.256;9.356;2022-07-22T07:51:06;101200.25;;;16.00;100.00
40073;BME280;25774;52.256;9.356;2022-07-22T07:53:32;101196.81;;;15.98;100.00
40073;BME280;25774;52.256;9.356;2022-07-22T07:55:58;101197.41;;;15.89;100.00
40073;BME280;25774;52.256;9.356;2022-07-22T07:58:24;101199.25;;;16.15;100.00
40073;BME280;25774;52.256;9.356;2022-07-22T08:00:50;101185.03;;;16.02;100.00
40073;BME280;25774;52.256;9.356;2022-07-22T08:03:15;101186.25;;;16.23;100.00
40073;BME280;25774;52.256;9.356;2022-07-22T08:05:41;101183.03;;;16.45;100.00
40073;BME280;25774;52.256;9.356;2022-07-22T08:08:06;101145.91;;;16.30;100.00
40073;BME280;25774;52.256;9.356;2022-07-22T08:10:32;101154.22;;;16.25;100.00
40073;BME280;25774;52.256;9.356;2022-07-22T08:12:58;101158.00;;;16.73;100.00
40073;BME280;25774;52.256;9.356;2022-07-22T08:15:25;101149.84;;;16.89;100.00
40073;BME280;25774;52.256;9.356;2022-07-22T08:17:51;101128.16;;;17.07;100.00
40073;BME280;25774;52.256;9.356;2022-07-22T08:20:17;101094.72;;;16.77;100.00
40073;BME280;25774;52.256;9.356;2022-07-22T08:22:42;101083.41;;;16.86;100.00
40073;BME280;25774;52.256;9.356;2022-07-22T08:25:07;101094.06;;;16.99;100.00
40073;BME280;25774;52.256;9.356;2022-07-22T08:27:33;101077.22;;;16.86;100.00
40073;BME280;25774;52.256;9.356;2022-07-22T08:29:59;101062.81;;;17.01;100.00
40073;BME280;25774;52.256;9.356;2022-07-22T08:32:24;101043.84;;;16.80;100.00
40073;BME280;25774;52.256;9.356;2022-07-22T08:34:50;101063.44;;;17.29;100.00
40073;BME280;25774;52.256;9.356;2022-07-22T08:37:16;101043.38;;;17.36;100.00
40073;BME280;25774;52.256;9.356;2022-07-22T08:39:41;101040.28;;;18.01;100.00
40073;BME280;25774;52.256;9.356;2022-07-22T08:42:07;101018.06;;;18.12;100.00
40073;BME280;25774;52.256;9.356;2022-07-22T08:44:33;100990.97;;;17.59;100.00
40073;BME280;25774;52.256;9.356;2022-07-22T08:47:00;100991.53;;;17.51;100.00
40073;BME280;25774;52.256;9.356;2022-07-22T08:49:25;101006.06;;;18.06;100.00
40073;BME280;25774;52.256;9.356;2022-07-22T08:51:51;100984.72;;;18.06;100.00
40073;BME280;25774;52.256;9.356;2022-07-22T08:54:17;100968.94;;;18.48;100.00
40073;BME280;25774;52.256;9.356;2022-07-22T08:56:46;100957.28;;;18.49;100.00
40073;BME280;25774;52.256;9.356;2022-07-22T08:59:12;100929.81;;;18.58;100.00
40073;BME280;25774;52.256;9.356;2022-07-22T09:01:57;100907.22;;;18.18;100.00
40073;BME280;25774;52.256;9.356;2022-07-22T09:04:24;100927.50;;;18.43;100.00
40073;BME280;25774;52.256;9.356;2022-07-22T09:06:50;100934.91;;;19.16;100.00
40073;BME280;25774;52.256;9.356;2022-07-22T09:09:15;100933.00;;;19.39;100.00
40073;BME280;25774;52.256;9.356;2022-07-22T09:11:40;100893.03;;;19.26;100.00
40073;BME280;25774;52.256;9.356;2022-07-22T09:14:06;100904.94;;;19.96;100.00
40073;BME280;25774;52.256;9.356;2022-07-22T09:16:57;100858.16;;;19.59;100.00
40073;BME280;25774;52.256;9.356;2022-07-22T09:19:31;100849.38;;;19.47;100.00
40073;BME280;25774;52.256;9.356;2022-07-22T09:21:57;100859.38;;;20.27;100.00
40073;BME280;25774;52.256;9.356;2022-07-22T09:24:32;100853.19;;;20.27;100.00
40073;BME280;25774;52.256;9.356;2022-07-22T09:26:58;100844.59;;;20.33;100.00
40073;BME280;25774;52.256;9.356;2022-07-22T09:29:24;100814.09;;;20.34;100.00
40073;BME280;25774;52.256;9.356;2022-07-22T09:31:51;100797.97;;;20.05;100.00
40073;BME280;25774;52.256;9.356;2022-07-22T09:34:28;100823.22;;;20.52;100.00
40073;BME280;25774;52.256;9.356;2022-07-22T09:37:00;100822.34;;;19.50;100.00
40073;BME280;25774;52.256;9.356;2022-07-22T09:39:27;100827.34;;;19.85;100.00
40073;BME280;25774;52.256;9.356;2022-07-22T09:42:03;100832.47;;;19.25;100.00
40073;BME280;25774;52.256;9.356;2022-07-22T09:44:29;100836.63;;;19.60;100.00
40073;BME280;25774;52.256;9.356;2022-07-22T09:46:54;100822.56;;;19.37;100.00
40073;BME280;25774;52.256;9.356;2022-07-22T09:49:36;100807.06;;;19.20;100.00
40073;BME280;25774;52.256;9.356;2022-07-22T09:52:06;100833.78;;;19.73;100.00
40073;BME280;25774;52.256;9.356;2022-07-22T09:54:31;100817.88;;;19.81;100.00
40073;BME280;25774;52.256;9.356;2022-07-22T09:56:58;100805.88;;;19.55;100.00
40073;BME280;25774;52.256;9.356;2022-07-22T09:59:24;100818.16;;;19.57;100.00
40073;BME280;25774;52.256;9.356;2022-07-22T10:01:50;100816.47;;;19.56;100.00
40073;BME280;25774;52.256;9.356;2022-07-22T10:04:20;100818.38;;;19.02;100.00
40073;BME280;25774;52.256;9.356;2022-07-22T10:06:47;100841.22;;;19.48;100.00
40073;BME280;25774;52.256;9.356;2022-07-22T10:09:14;100806.34;;;19.60;100.00
40073;BME280;25774;52.256;9.356;2022-07-22T10:11:40;100804.63;;;19.59;100.00
40073;BME280;25774;52.256;9.356;2022-07-22T10:14:11;100805.09;;;19.43;100.00
40073;BME280;25774;52.256;9.356;2022-07-22T10:16:37;100828.97;;;19.97;100.00
40073;BME280;25774;52.256;9.356;2022-07-22T10:19:03;100817.47;;;19.34;100.00
40073;BME280;25774;52.256;9.356;2022-07-22T10:21:33;100831.28;;;19.39;100.00
40073;BME280;25774;52.256;9.356;2022-07-22T10:24:11;100829.06;;;19.96;100.00
40073;BME280;25774;52.256;9.356;2022-07-22T10:26:51;100837.00;;;19.56;100.00
40073;BME280;25774;52.256;9.356;2022-07-22T10:29:31;100819.94;;;18.73;100.00
40073;BME280;25774;52.256;9.356;2022-07-22T10:34:42;100810.22;;;19.25;100.00
40073;BME280;25774;52.256;9.356;2022-07-22T10:40:17;100829.47;;;18.54;100.00
40073;BME280;25774;52.256;9.356;2022-07-22T10:45:27;100829.31;;;18.99;100.00
40073;BME280;25774;52.256;9.356;2022-07-22T10:47:55;100842.88;;;19.08;100.00
40073;BME280;25774;52.256;9.356;2022-07-22T10:55:31;100817.91;;;19.39;100.00
40073;BME280;25774;52.256;9.356;2022-07-22T10:57:56;100799.31;;;19.17;100.00
40073;BME280;25774;52.256;9.356;2022-07-22T11:00:22;100804.41;;;19.20;100.00
40073;BME280;25774;52.256;9.356;2022-07-22T11:02:48;100786.91;;;18.95;100.00
40073;BME280;25774;52.256;9.356;2022-07-22T11:05:14;100807.19;;;19.39;100.00
40073;BME280;25774;52.256;9.356;2022-07-22T11:07:46;100786.56;;;18.88;100.00
40073;BME280;25774;52.256;9.356;2022-07-22T11:10:14;100799.94;;;19.30;100.00
40073;BME280;25774;52.256;9.356;2022-07-22T11:12:41;100786.84;;;19.27;100.00
40073;BME280;25774;52.256;9.356;2022-07-22T11:15:07;100764.22;;;19.31;100.00
40073;BME280;25774;52.256;9.356;2022-07-22T11:17:33;100790.09;;;19.72;100.00
40073;BME280;25774;52.256;9.356;2022-07-22T11:20:04;100794.22;;;19.14;100.00
40073;BME280;25774;52.256;9.356;2022-07-22T11:22:31;100794.44;;;19.73;100.00
40073;BME280;25774;52.256;9.356;2022-07-22T11:24:57;100789.25;;;20.22;100.00
40073;BME280;25774;52.256;9.356;2022-07-22T11:27:24;100750.69;;;20.04;100.00
40073;BME280;25774;52.256;9.356;2022-07-22T11:29:53;100781.56;;;20.67;100.00
40073;BME280;25774;52.256;9.356;2022-07-22T11:32:24;100753.81;;;20.09;100.00
40073;BME280;25774;52.256;9.356;2022-07-22T11:34:50;100733.78;;;20.03;100.00
40073;BME280;25774;52.256;9.356;2022-07-22T11:37:20;100773.34;;;20.50;100.00
40073;BME280;25774;52.256;9.356;2022-07-22T11:39:48;100766.16;;;20.40;100.00
40073;BME280;25774;52.256;9.356;2022-07-22T11:42:14;100744.50;;;20.13;100.00
40073;BME280;25774;52.256;9.356;2022-07-22T11:44:40;100732.34;;;19.89;100.00
40073;BME280;25774;52.256;9.356;2022-07-22T11:47:06;100767.50;;;20.06;100.00
40073;BME280;25774;52.256;9.356;2022-07-22T11:49:33;100768.38;;;20.35;100.00
40073;BME280;25774;52.256;9.356;2022-07-22T11:52:01;100765.72;;;20.35;100.00
40073;BME280;25774;52.256;9.356;2022-07-22T11:54:27;100739.19;;;20.32;100.00
40073;BME280;25774;52.256;9.356;2022-07-22T11:56:53;100753.59;;;19.81;100.00
40073;BME280;25774;52.256;9.356;2022-07-22T11:59:19;100772.56;;;20.09;100.00
40073;BME280;25774;52.256;9.356;2022-07-22T12:01:45;100744.88;;;19.58;100.00
40073;BME280;25774;52.256;9.356;2022-07-22T12:04:23;100772.31;;;19.71;100.00
40073;BME280;25774;52.256;9.356;2022-07-22T12:06:50;100735.78;;;19.09;100.00
40073;BME280;25774;52.256;9.356;2022-07-22T12:11:46;100741.28;;;19.38;100.00
40073;BME280;25774;52.256;9.356;2022-07-22T12:14:18;100718.88;;;19.09;100.00
40073;BME280;25774;52.256;9.356;2022-07-22T12:17:00;100747.75;;;19.36;100.00
40073;BME280;25774;52.256;9.356;2022-07-22T12:19:27;100769.84;;;19.89;100.00
40073;BME280;25774;52.256;9.356;2022-07-22T12:22:09;100760.94;;;20.49;100.00
40073;BME280;25774;52.256;9.356;2022-07-22T12:24:42;100709.69;;;20.13;100.00
40073;BME280;25774;52.256;9.356;2022-07-22T12:27:09;100705.00;;;19.95;100.00
40073;BME280;25774;52.256;9.356;2022-07-22T12:32:05;100686.91;;;19.78;100.00
40073;BME280;25774;52.256;9.356;2022-07-22T12:34:40;100706.72;;;20.16;100.00
40073;BME280;25774;52.256;9.356;2022-07-22T12:37:18;100717.44;;;20.06;100.00
40073;BME280;25774;52.256;9.356;2022-07-22T12:40:06;100748.81;;;20.64;100.00
40073;BME280;25774;52.256;9.356;2022-07-22T12:42:38;100699.97;;;20.70;100.00
40073;BME280;25774;52.256;9.356;2022-07-22T12:45:07;100683.88;;;20.41;100.00
40073;BME280;25774;52.256;9.356;2022-07-22T12:47:53;100743.16;;;20.77;100.00
40073;BME280;25774;52.256;9.356;2022-07-22T12:52:56;100709.25;;;20.08;100.00
40073;BME280;25774;52.256;9.356;2022-07-22T12:55:22;100730.56;;;20.29;100.00
40073;BME280;25774;52.256;9.356;2022-07-22T12:57:47;100708.00;;;20.12;100.00
40073;BME280;25774;52.256;9.356;2022-07-22T13:00:21;100723.28;;;20.60;100.00
40073;BME280;25774;52.256;9.356;2022-07-22T13:02:48;100734.41;;;20.46;100.00